Archival Weather

Alykel

Alykel, Russia (UOOO)

Report from: Tuesday, November 21, 2023 5:30 AM UTC
Current time: Friday, July 19, 2024 2:34 AM UTC

Current weather – Weather history – Daily summaries
Weather forecast

Present weatherLight snow, drifting snow
Temperature-26.0°C (-14.8°F)
Wind chill-38.5°C (-37.2°F)
Dew point-28.0°C (-18.4°F)
Winds 11.7 kts (6 m/s, 13.4 mph) South (190°)
Visibility2.7 mi. (4.3 km)
Clouds Ceiling: Overcast 2,500 ft. (762 m)
Altimeter30.15 in.Hg (1021 mB)
Precip. events QF 4:29 PM
Relative humidity83 %
Density altitude-5,583 ft. (-1,702 m)
Remarks No significant changes expected in the next two hours
Flight conditions Instrument Meteorological Conditions
Raw dataUOOO 210530Z 19006MPS 4300 -SN DRSN OVC025 M26/M28 Q1021 R19/35//60 NOSIG RMK QFE749/0999
An error has occurred. This application may no longer respond until reloaded. Reload 🗙